sensor_id;sensor_type;location;lat;lon;timestamp;pressure;altitude;pressure_sealevel;temperature;humidity
10518;BME280;5307;42.548;22.968;2023-02-19T00:01:27;94228.28;;;2.61;94.46
10518;BME280;5307;42.548;22.968;2023-02-19T00:03:56;94230.56;;;2.66;95.85
10518;BME280;5307;42.548;22.968;2023-02-19T00:06:26;94211.38;;;2.25;95.68
10518;BME280;5307;42.548;22.968;2023-02-19T00:08:53;94216.31;;;2.73;95.41
10518;BME280;5307;42.548;22.968;2023-02-19T00:11:22;94213.25;;;2.53;95.34
10518;BME280;5307;42.548;22.968;2023-02-19T00:13:50;94213.66;;;2.48;96.00
10518;BME280;5307;42.548;22.968;2023-02-19T00:16:20;94206.75;;;2.44;95.34
10518;BME280;5307;42.548;22.968;2023-02-19T00:18:47;94204.81;;;2.55;96.14
10518;BME280;5307;42.548;22.968;2023-02-19T00:21:15;94201.72;;;2.56;95.08
10518;BME280;5307;42.548;22.968;2023-02-19T00:23:47;94203.25;;;2.36;95.86
10518;BME280;5307;42.548;22.968;2023-02-19T00:26:14;94200.56;;;2.50;96.87
10518;BME280;5307;42.548;22.968;2023-02-19T00:28:41;94197.88;;;2.32;97.32
10518;BME280;5307;42.548;22.968;2023-02-19T00:31:10;94206.34;;;2.42;97.28
10518;BME280;5307;42.548;22.968;2023-02-19T00:33:40;94189.81;;;2.25;96.85
10518;BME280;5307;42.548;22.968;2023-02-19T00:36:07;94196.34;;;2.28;97.29
10518;BME280;5307;42.548;22.968;2023-02-19T00:38:35;94184.41;;;2.40;96.05
10518;BME280;5307;42.548;22.968;2023-02-19T00:41:05;94189.03;;;2.28;96.54
10518;BME280;5307;42.548;22.968;2023-02-19T00:43:44;94182.88;;;2.10;97.05
10518;BME280;5307;42.548;22.968;2023-02-19T00:46:11;94180.56;;;2.33;97.71
10518;BME280;5307;42.548;22.968;2023-02-19T00:48:38;94179.81;;;2.29;96.28
10518;BME280;5307;42.548;22.968;2023-02-19T00:51:05;94161.72;;;2.01;96.69
10518;BME280;5307;42.548;22.968;2023-02-19T00:53:31;94185.19;;;2.01;97.75
10518;BME280;5307;42.548;22.968;2023-02-19T00:55:58;94183.63;;;2.11;97.15
10518;BME280;5307;42.548;22.968;2023-02-19T00:58:27;94178.63;;;2.20;96.41
10518;BME280;5307;42.548;22.968;2023-02-19T01:00:53;94164.00;;;2.10;96.49
10518;BME280;5307;42.548;22.968;2023-02-19T01:03:20;94171.72;;;2.01;97.33
10518;BME280;5307;42.548;22.968;2023-02-19T01:05:48;94167.09;;;1.94;97.19
10518;BME280;5307;42.548;22.968;2023-02-19T01:08:14;94171.31;;;2.06;98.72
10518;BME280;5307;42.548;22.968;2023-02-19T01:10:41;94169.81;;;2.12;97.42
10518;BME280;5307;42.548;22.968;2023-02-19T01:13:08;94167.47;;;1.96;97.18
10518;BME280;5307;42.548;22.968;2023-02-19T01:15:37;94171.72;;;2.15;97.65
10518;BME280;5307;42.548;22.968;2023-02-19T01:18:03;94183.28;;;2.26;97.13
10518;BME280;5307;42.548;22.968;2023-02-19T01:20:30;94180.97;;;2.14;96.69
10518;BME280;5307;42.548;22.968;2023-02-19T01:22:57;94180.94;;;2.07;97.18
10518;BME280;5307;42.548;22.968;2023-02-19T01:25:24;94186.34;;;2.14;97.66
10518;BME280;5307;42.548;22.968;2023-02-19T01:27:51;94172.84;;;1.96;97.84
10518;BME280;5307;42.548;22.968;2023-02-19T01:30:18;94185.97;;;2.01;97.27
10518;BME280;5307;42.548;22.968;2023-02-19T01:32:46;94180.56;;;2.08;97.09
10518;BME280;5307;42.548;22.968;2023-02-19T01:35:13;94172.09;;;2.06;97.02
10518;BME280;5307;42.548;22.968;2023-02-19T01:37:39;94180.19;;;2.03;97.34
10518;BME280;5307;42.548;22.968;2023-02-19T01:40:07;94180.94;;;1.96;98.02
10518;BME280;5307;42.548;22.968;2023-02-19T01:42:34;94185.19;;;2.04;97.71
10518;BME280;5307;42.548;22.968;2023-02-19T01:48:10;94193.22;;;1.72;99.33
10518;BME280;5307;42.548;22.968;2023-02-19T01:50:41;94187.50;;;2.06;99.63
10518;BME280;5307;42.548;22.968;2023-02-19T01:53:12;94203.66;;;2.09;98.60
10518;BME280;5307;42.548;22.968;2023-02-19T01:55:41;94196.72;;;2.16;98.28
10518;BME280;5307;42.548;22.968;2023-02-19T01:58:10;94196.75;;;2.12;98.21
10518;BME280;5307;42.548;22.968;2023-02-19T02:00:37;94197.09;;;2.21;97.60
10518;BME280;5307;42.548;22.968;2023-02-19T02:03:04;94193.66;;;2.03;97.36
10518;BME280;5307;42.548;22.968;2023-02-19T02:05:44;94202.50;;;2.14;97.74
10518;BME280;5307;42.548;22.968;2023-02-19T02:08:14;94195.16;;;1.72;98.03
10518;BME280;5307;42.548;22.968;2023-02-19T02:10:59;94197.09;;;1.93;99.45
10518;BME280;5307;42.548;22.968;2023-02-19T02:13:26;94198.25;;;1.95;99.05
10518;BME280;5307;42.548;22.968;2023-02-19T02:16:01;94202.88;;;1.98;99.45
10518;BME280;5307;42.548;22.968;2023-02-19T02:18:39;94189.03;;;1.93;99.26
10518;BME280;5307;42.548;22.968;2023-02-19T02:24:23;94195.47;;;1.45;99.71
10518;BME280;5307;42.548;22.968;2023-02-19T02:27:11;94201.66;;;1.64;100.00
10518;BME280;5307;42.548;22.968;2023-02-19T02:32:43;94196.69;;;1.80;100.00
10518;BME280;5307;42.548;22.968;2023-02-19T02:35:20;94199.75;;;1.61;100.00
10518;BME280;5307;42.548;22.968;2023-02-19T02:37:48;94198.56;;;1.55;100.00
10518;BME280;5307;42.548;22.968;2023-02-19T02:40:17;94192.44;;;1.68;100.00
10518;BME280;5307;42.548;22.968;2023-02-19T02:42:44;94197.78;;;1.54;100.00
10518;BME280;5307;42.548;22.968;2023-02-19T02:45:31;94205.16;;;1.78;100.00
10518;BME280;5307;42.548;22.968;2023-02-19T02:50:50;94192.09;;;1.70;100.00
10518;BME280;5307;42.548;22.968;2023-02-19T02:53:20;94199.75;;;1.61;100.00
10518;BME280;5307;42.548;22.968;2023-02-19T02:56:06;94204.34;;;1.60;100.00
10518;BME280;5307;42.548;22.968;2023-02-19T02:58:33;94210.50;;;1.57;100.00
10518;BME280;5307;42.548;22.968;2023-02-19T03:01:05;94210.91;;;1.66;100.00
10518;BME280;5307;42.548;22.968;2023-02-19T03:03:54;94214.31;;;1.49;100.00
10518;BME280;5307;42.548;22.968;2023-02-19T03:06:27;94215.84;;;1.50;100.00
10518;BME280;5307;42.548;22.968;2023-02-19T03:08:57;94207.44;;;1.59;100.00
10518;BME280;5307;42.548;22.968;2023-02-19T03:11:28;94208.13;;;1.38;100.00
10518;BME280;5307;42.548;22.968;2023-02-19T03:14:16;94215.47;;;1.44;100.00
10518;BME280;5307;42.548;22.968;2023-02-19T03:17:18;94211.03;;;0.94;100.00
10518;BME280;5307;42.548;22.968;2023-02-19T03:20:07;94218.06;;;1.27;100.00
10518;BME280;5307;42.548;22.968;2023-02-19T03:22:36;94218.16;;;1.44;100.00
10518;BME280;5307;42.548;22.968;2023-02-19T03:25:08;94208.00;;;1.09;100.00
10518;BME280;5307;42.548;22.968;2023-02-19T03:27:54;94236.09;;;1.15;100.00
10518;BME280;5307;42.548;22.968;2023-02-19T03:30:25;94238.81;;;1.26;100.00
10518;BME280;5307;42.548;22.968;2023-02-19T03:32:58;94239.59;;;1.27;100.00
10518;BME280;5307;42.548;22.968;2023-02-19T03:35:29;94250.34;;;1.27;100.00
10518;BME280;5307;42.548;22.968;2023-02-19T03:38:01;94242.59;;;1.11;100.00
10518;BME280;5307;42.548;22.968;2023-02-19T03:40:30;94245.34;;;1.18;100.00
10518;BME280;5307;42.548;22.968;2023-02-19T03:43:31;94259.47;;;1.04;100.00
10518;BME280;5307;42.548;22.968;2023-02-19T03:46:06;94256.50;;;1.24;100.00
10518;BME280;5307;42.548;22.968;2023-02-19T03:48:37;94268.03;;;1.24;100.00
10518;BME280;5307;42.548;22.968;2023-02-19T03:51:19;94266.00;;;1.03;100.00
10518;BME280;5307;42.548;22.968;2023-02-19T03:53:52;94268.66;;;0.96;100.00
10518;BME280;5307;42.548;22.968;2023-02-19T03:56:29;94270.63;;;1.06;100.00
10518;BME280;5307;42.548;22.968;2023-02-19T03:59:01;94268.63;;;0.93;100.00
10518;BME280;5307;42.548;22.968;2023-02-19T04:01:35;94268.63;;;0.93;100.00
10518;BME280;5307;42.548;22.968;2023-02-19T04:04:12;94266.75;;;1.00;100.00
10518;BME280;5307;42.548;22.968;2023-02-19T04:06:42;94271.72;;;0.98;100.00
10518;BME280;5307;42.548;22.968;2023-02-19T04:09:13;94268.91;;;0.77;100.00
10518;BME280;5307;42.548;22.968;2023-02-19T04:11:40;94280.47;;;0.84;100.00
10518;BME280;5307;42.548;22.968;2023-02-19T04:14:10;94279.00;;;0.94;100.00
10518;BME280;5307;42.548;22.968;2023-02-19T04:16:40;94274.06;;;1.03;100.00
10518;BME280;5307;42.548;22.968;2023-02-19T04:19:13;94278.94;;;0.83;100.00
10518;BME280;5307;42.548;22.968;2023-02-19T04:21:43;94275.44;;;0.76;100.00
10518;BME280;5307;42.548;22.968;2023-02-19T04:24:13;94265.56;;;0.94;100.00
10518;BME280;5307;42.548;22.968;2023-02-19T04:26:43;94280.97;;;1.01;100.00
10518;BME280;5307;42.548;22.968;2023-02-19T04:29:10;94285.31;;;0.61;100.00
10518;BME280;5307;42.548;22.968;2023-02-19T04:31:37;94291.59;;;0.83;100.00
10518;BME280;5307;42.548;22.968;2023-02-19T04:34:04;94288.53;;;0.84;100.00
10518;BME280;5307;42.548;22.968;2023-02-19T04:36:33;94283.22;;;0.88;100.00
10518;BME280;5307;42.548;22.968;2023-02-19T04:38:59;94286.59;;;0.78;100.00
10518;BME280;5307;42.548;22.968;2023-02-19T04:41:26;94265.19;;;0.41;100.00
10518;BME280;5307;42.548;22.968;2023-02-19T04:43:53;94279.44;;;1.00;100.00
10518;BME280;5307;42.548;22.968;2023-02-19T04:46:20;94285.91;;;0.92;100.00
10518;BME280;5307;42.548;22.968;2023-02-19T04:48:48;94281.66;;;0.87;100.00
10518;BME280;5307;42.548;22.968;2023-02-19T04:51:21;94282.81;;;0.89;100.00
10518;BME280;5307;42.548;22.968;2023-02-19T04:53:49;94275.47;;;0.83;100.00
10518;BME280;5307;42.548;22.968;2023-02-19T04:56:16;94284.75;;;0.89;100.00
10518;BME280;5307;42.548;22.968;2023-02-19T04:58:44;94286.28;;;0.86;100.00
10518;BME280;5307;42.548;22.968;2023-02-19T05:01:13;94281.34;;;0.99;100.00
10518;BME280;5307;42.548;22.968;2023-02-19T05:03:40;94287.81;;;0.91;100.00
10518;BME280;5307;42.548;22.968;2023-02-19T05:06:08;94290.09;;;0.85;100.00
10518;BME280;5307;42.548;22.968;2023-02-19T05:08:36;94294.03;;;1.02;100.00
10518;BME280;5307;42.548;22.968;2023-02-19T05:11:07;94295.00;;;0.73;100.00
10518;BME280;5307;42.548;22.968;2023-02-19T05:13:35;94287.03;;;0.87;100.00
10518;BME280;5307;42.548;22.968;2023-02-19T05:16:04;94298.94;;;0.86;100.00
10518;BME280;5307;42.548;22.968;2023-02-19T05:18:31;94297.78;;;0.87;100.00
10518;BME280;5307;42.548;22.968;2023-02-19T05:21:00;94299.66;;;0.79;100.00
10518;BME280;5307;42.548;22.968;2023-02-19T05:23:27;94299.41;;;0.99;100.00
10518;BME280;5307;42.548;22.968;2023-02-19T05:25:54;94301.28;;;0.95;100.00
10518;BME280;5307;42.548;22.968;2023-02-19T05:28:23;94298.91;;;0.82;100.00
10518;BME280;5307;42.548;22.968;2023-02-19T05:30:54;94316.56;;;0.83;100.00
10518;BME280;5307;42.548;22.968;2023-02-19T05:33:23;94313.22;;;0.97;100.00
10518;BME280;5307;42.548;22.968;2023-02-19T05:35:52;94309.63;;;0.79;100.00
10518;BME280;5307;42.548;22.968;2023-02-19T05:38:19;94312.22;;;0.65;100.00
10518;BME280;5307;42.548;22.968;2023-02-19T05:40:46;94311.94;;;0.77;100.00
10518;BME280;5307;42.548;22.968;2023-02-19T05:43:13;94318.16;;;0.92;100.00
10518;BME280;5307;42.548;22.968;2023-02-19T05:45:41;94326.88;;;0.71;100.00
10518;BME280;5307;42.548;22.968;2023-02-19T05:48:10;94327.78;;;0.96;100.00
10518;BME280;5307;42.548;22.968;2023-02-19T05:50:37;94313.53;;;0.85;100.00
10518;BME280;5307;42.548;22.968;2023-02-19T05:53:04;94313.16;;;0.86;100.00
10518;BME280;5307;42.548;22.968;2023-02-19T05:55:34;94328.66;;;1.07;100.00
10518;BME280;5307;42.548;22.968;2023-02-19T05:58:01;94336.78;;;1.14;100.00
10518;BME280;5307;42.548;22.968;2023-02-19T06:00:29;94344.94;;;1.29;100.00
10518;BME280;5307;42.548;22.968;2023-02-19T06:02:59;94337.09;;;1.09;100.00
10518;BME280;5307;42.548;22.968;2023-02-19T06:05:26;94332.63;;;1.28;100.00
10518;BME280;5307;42.548;22.968;2023-02-19T06:07:52;94336.41;;;1.19;100.00
10518;BME280;5307;42.548;22.968;2023-02-19T06:10:19;94336.44;;;1.23;100.00
10518;BME280;5307;42.548;22.968;2023-02-19T06:12:46;94348.78;;;1.28;100.00
10518;BME280;5307;42.548;22.968;2023-02-19T06:15:13;94344.63;;;1.48;100.00
10518;BME280;5307;42.548;22.968;2023-02-19T06:17:40;94341.97;;;1.52;100.00
10518;BME280;5307;42.548;22.968;2023-02-19T06:20:09;94338.56;;;1.62;100.00
10518;BME280;5307;42.548;22.968;2023-02-19T06:22:36;94342.00;;;1.59;100.00
10518;BME280;5307;42.548;22.968;2023-02-19T06:25:03;94337.47;;;1.73;100.00
10518;BME280;5307;42.548;22.968;2023-02-19T06:27:32;94350.59;;;1.86;100.00
10518;BME280;5307;42.548;22.968;2023-02-19T06:29:59;94355.22;;;1.89;100.00
10518;BME280;5307;42.548;22.968;2023-02-19T06:32:26;94353.28;;;1.96;100.00
10518;BME280;5307;42.548;22.968;2023-02-19T06:34:52;94356.00;;;1.93;100.00
10518;BME280;5307;42.548;22.968;2023-02-19T06:37:21;94355.66;;;2.08;100.00
10518;BME280;5307;42.548;22.968;2023-02-19T06:39:47;94355.31;;;2.24;100.00
10518;BME280;5307;42.548;22.968;2023-02-19T06:42:15;94350.34;;;2.33;100.00
10518;BME280;5307;42.548;22.968;2023-02-19T06:44:42;94349.97;;;2.46;100.00
10518;BME280;5307;42.548;22.968;2023-02-19T06:47:08;94352.28;;;2.65;100.00
10518;BME280;5307;42.548;22.968;2023-02-19T06:49:35;94348.88;;;2.82;98.27
10518;BME280;5307;42.548;22.968;2023-02-19T06:52:04;94344.59;;;2.95;96.94
10518;BME280;5307;42.548;22.968;2023-02-19T06:54:32;94339.94;;;3.21;96.45
10518;BME280;5307;42.548;22.968;2023-02-19T06:57:00;94330.31;;;3.20;95.23
10518;BME280;5307;42.548;22.968;2023-02-19T06:59:27;94333.72;;;3.49;93.20
10518;BME280;5307;42.548;22.968;2023-02-19T07:01:54;94335.25;;;3.57;90.41
10518;BME280;5307;42.548;22.968;2023-02-19T07:04:21;94337.53;;;3.73;89.16
10518;BME280;5307;42.548;22.968;2023-02-19T07:06:48;94332.72;;;4.12;87.84
10518;BME280;5307;42.548;22.968;2023-02-19T07:09:14;94331.91;;;4.19;87.10
10518;BME280;5307;42.548;22.968;2023-02-19T07:11:43;94334.81;;;4.53;86.23
10518;BME280;5307;42.548;22.968;2023-02-19T07:14:14;94336.13;;;4.86;84.55
10518;BME280;5307;42.548;22.968;2023-02-19T07:16:41;94315.63;;;5.30;80.42
10518;BME280;5307;42.548;22.968;2023-02-19T07:19:09;94327.97;;;5.34;77.10
10518;BME280;5307;42.548;22.968;2023-02-19T07:21:36;94329.09;;;5.75;75.71
10518;BME280;5307;42.548;22.968;2023-02-19T07:24:04;94338.50;;;6.01;74.96
10518;BME280;5307;42.548;22.968;2023-02-19T07:26:31;94334.84;;;6.14;74.61
10518;BME280;5307;42.548;22.968;2023-02-19T07:28:59;94332.72;;;5.99;75.05
10518;BME280;5307;42.548;22.968;2023-02-19T07:31:27;94351.81;;;6.22;75.02
10518;BME280;5307;42.548;22.968;2023-02-19T07:33:54;94342.00;;;6.01;74.38
10518;BME280;5307;42.548;22.968;2023-02-19T07:36:22;94331.25;;;5.90;74.18
10518;BME280;5307;42.548;22.968;2023-02-19T07:38:52;94336.16;;;6.33;73.83
10518;BME280;5307;42.548;22.968;2023-02-19T07:41:19;94334.44;;;6.73;71.76
10518;BME280;5307;42.548;22.968;2023-02-19T07:43:46;94327.22;;;7.60;68.54
10518;BME280;5307;42.548;22.968;2023-02-19T07:46:14;94328.28;;;7.43;68.12
10518;BME280;5307;42.548;22.968;2023-02-19T07:48:42;94338.22;;;7.06;67.87
10518;BME280;5307;42.548;22.968;2023-02-19T07:51:11;94334.84;;;7.89;68.15
10518;BME280;5307;42.548;22.968;2023-02-19T07:53:38;94326.44;;;7.80;65.96
10518;BME280;5307;42.548;22.968;2023-02-19T07:56:06;94329.94;;;7.37;66.69
10518;BME280;5307;42.548;22.968;2023-02-19T07:58:34;94322.72;;;9.02;63.70
10518;BME280;5307;42.548;22.968;2023-02-19T08:01:07;94309.53;;;9.62;61.74
10518;BME280;5307;42.548;22.968;2023-02-19T08:03:35;94313.22;;;9.84;59.66
10518;BME280;5307;42.548;22.968;2023-02-19T08:06:01;94320.06;;;9.47;57.96
10518;BME280;5307;42.548;22.968;2023-02-19T08:08:28;94311.06;;;9.01;58.04
10518;BME280;5307;42.548;22.968;2023-02-19T08:10:58;94310.03;;;8.95;58.74
10518;BME280;5307;42.548;22.968;2023-02-19T08:13:43;94311.38;;;9.19;58.58
10518;BME280;5307;42.548;22.968;2023-02-19T08:16:12;94310.94;;;9.37;57.86
10518;BME280;5307;42.548;22.968;2023-02-19T08:18:41;94309.81;;;9.80;57.20
10518;BME280;5307;42.548;22.968;2023-02-19T08:21:09;94314.78;;;10.27;54.54
10518;BME280;5307;42.548;22.968;2023-02-19T08:23:36;94290.59;;;10.80;52.55
10518;BME280;5307;42.548;22.968;2023-02-19T08:26:03;94297.84;;;10.19;52.85
10518;BME280;5307;42.548;22.968;2023-02-19T08:28:30;94289.63;;;11.46;52.21
10518;BME280;5307;42.548;22.968;2023-02-19T08:31:01;94290.06;;;11.45;50.93
10518;BME280;5307;42.548;22.968;2023-02-19T08:33:29;94288.84;;;12.15;51.20
10518;BME280;5307;42.548;22.968;2023-02-19T08:36:00;94302.28;;;11.18;51.91
10518;BME280;5307;42.548;22.968;2023-02-19T08:38:29;94292.00;;;11.92;52.64
10518;BME280;5307;42.548;22.968;2023-02-19T08:40:56;94282.09;;;11.72;51.11
10518;BME280;5307;42.548;22.968;2023-02-19T08:43:23;94270.66;;;11.52;50.52
10518;BME280;5307;42.548;22.968;2023-02-19T08:45:52;94270.50;;;12.25;48.98
10518;BME280;5307;42.548;22.968;2023-02-19T08:48:20;94284.19;;;12.03;48.75
10518;BME280;5307;42.548;22.968;2023-02-19T08:50:53;94269.16;;;13.00;47.44
10518;BME280;5307;42.548;22.968;2023-02-19T08:53:21;94264.72;;;13.98;44.83
10518;BME280;5307;42.548;22.968;2023-02-19T08:55:48;94258.63;;;13.08;47.18
10518;BME280;5307;42.548;22.968;2023-02-19T08:58:15;94250.81;;;13.65;46.90
10518;BME280;5307;42.548;22.968;2023-02-19T09:00:42;94243.28;;;13.11;48.00
10518;BME280;5307;42.548;22.968;2023-02-19T09:03:08;94249.44;;;13.24;46.15
10518;BME280;5307;42.548;22.968;2023-02-19T09:05:36;94239.63;;;13.14;46.62
10518;BME280;5307;42.548;22.968;2023-02-19T09:08:03;94229.78;;;13.34;46.46
10518;BME280;5307;42.548;22.968;2023-02-19T09:10:31;94229.97;;;14.55;46.04
10518;BME280;5307;42.548;22.968;2023-02-19T09:12:58;94229.53;;;14.39;45.07
10518;BME280;5307;42.548;22.968;2023-02-19T09:15:27;94225.50;;;15.24;43.97
10518;BME280;5307;42.548;22.968;2023-02-19T09:17:54;94221.00;;;15.12;42.74
10518;BME280;5307;42.548;22.968;2023-02-19T09:20:21;94216.81;;;15.17;42.98
10518;BME280;5307;42.548;22.968;2023-02-19T09:23:15;94218.63;;;14.63;42.33
10518;BME280;5307;42.548;22.968;2023-02-19T09:25:43;94207.50;;;14.57;42.43
10518;BME280;5307;42.548;22.968;2023-02-19T09:28:10;94200.16;;;14.63;42.49
10518;BME280;5307;42.548;22.968;2023-02-19T09:30:37;94199.03;;;14.79;41.71
10518;BME280;5307;42.548;22.968;2023-02-19T09:33:04;94202.44;;;15.84;40.70
10518;BME280;5307;42.548;22.968;2023-02-19T09:35:31;94199.97;;;16.01;40.65
10518;BME280;5307;42.548;22.968;2023-02-19T09:37:58;94195.03;;;15.90;41.33
10518;BME280;5307;42.548;22.968;2023-02-19T09:40:26;94183.16;;;15.84;38.90
10518;BME280;5307;42.548;22.968;2023-02-19T09:42:54;94186.31;;;15.53;38.96
10518;BME280;5307;42.548;22.968;2023-02-19T09:45:22;94185.38;;;15.32;39.76
10518;BME280;5307;42.548;22.968;2023-02-19T09:47:53;94175.56;;;15.40;40.14
10518;BME280;5307;42.548;22.968;2023-02-19T09:50:26;94176.22;;;16.18;40.37
10518;BME280;5307;42.548;22.968;2023-02-19T09:52:59;94173.59;;;16.24;39.99
10518;BME280;5307;42.548;22.968;2023-02-19T09:55:30;94162.66;;;16.15;39.69
10518;BME280;5307;42.548;22.968;2023-02-19T09:58:02;94151.66;;;16.79;39.93
10518;BME280;5307;42.548;22.968;2023-02-19T10:00:32;94159.91;;;15.47;38.58
10518;BME280;5307;42.548;22.968;2023-02-19T10:03:03;94150.13;;;15.45;42.13
10518;BME280;5307;42.548;22.968;2023-02-19T10:05:32;94153.03;;;15.66;41.05
10518;BME280;5307;42.548;22.968;2023-02-19T10:08:01;94153.97;;;16.51;38.07
10518;BME280;5307;42.548;22.968;2023-02-19T10:10:31;94140.06;;;16.11;38.19
10518;BME280;5307;42.548;22.968;2023-02-19T10:13:16;94137.00;;;15.26;41.12
10518;BME280;5307;42.548;22.968;2023-02-19T10:15:46;94135.84;;;16.15;39.56
10518;BME280;5307;42.548;22.968;2023-02-19T10:18:19;94116.66;;;15.62;39.20
10518;BME280;5307;42.548;22.968;2023-02-19T10:20:48;94124.00;;;15.65;39.55
10518;BME280;5307;42.548;22.968;2023-02-19T10:23:16;94120.34;;;15.59;38.57
10518;BME280;5307;42.548;22.968;2023-02-19T10:25:46;94110.66;;;15.49;38.54
10518;BME280;5307;42.548;22.968;2023-02-19T10:28:18;94111.06;;;16.00;38.27
10518;BME280;5307;42.548;22.968;2023-02-19T10:30:50;94097.72;;;16.78;39.00
10518;BME280;5307;42.548;22.968;2023-02-19T10:33:18;94084.06;;;16.34;38.10
10518;BME280;5307;42.548;22.968;2023-02-19T10:35:54;94079.19;;;16.79;37.31
10518;BME280;5307;42.548;22.968;2023-02-19T10:38:25;94082.41;;;16.42;38.83
10518;BME280;5307;42.548;22.968;2023-02-19T10:40:59;94080.63;;;16.59;38.55
10518;BME280;5307;42.548;22.968;2023-02-19T10:43:30;94077.38;;;16.76;38.20
10518;BME280;5307;42.548;22.968;2023-02-19T10:46:01;94071.50;;;15.30;38.83
10518;BME280;5307;42.548;22.968;2023-02-19T10:48:31;94070.06;;;15.73;38.13
10518;BME280;5307;42.548;22.968;2023-02-19T10:51:03;94055.91;;;16.30;38.12
10518;BME280;5307;42.548;22.968;2023-02-19T10:53:39;94054.72;;;16.16;37.88
10518;BME280;5307;42.548;22.968;2023-02-19T10:56:08;94052.28;;;15.74;37.64
10518;BME280;5307;42.548;22.968;2023-02-19T10:58:38;94049.06;;;15.61;37.21
10518;BME280;5307;42.548;22.968;2023-02-19T11:01:15;94038.72;;;15.85;37.65
10518;BME280;5307;42.548;22.968;2023-02-19T11:03:45;94036.72;;;16.36;37.69
10518;BME280;5307;42.548;22.968;2023-02-19T11:06:13;94029.06;;;16.10;37.66
10518;BME280;5307;42.548;22.968;2023-02-19T11:08:47;94009.91;;;16.36;36.95
10518;BME280;5307;42.548;22.968;2023-02-19T11:11:24;94009.81;;;15.95;37.52
10518;BME280;5307;42.548;22.968;2023-02-19T11:13:53;93995.97;;;16.25;37.46
10518;BME280;5307;42.548;22.968;2023-02-19T11:16:21;94003.59;;;16.91;37.05
10518;BME280;5307;42.548;22.968;2023-02-19T11:18:53;94001.50;;;15.75;37.12
10518;BME280;5307;42.548;22.968;2023-02-19T11:21:25;93987.19;;;16.61;37.70
10518;BME280;5307;42.548;22.968;2023-02-19T11:23:57;93987.03;;;16.50;37.08
10518;BME280;5307;42.548;22.968;2023-02-19T11:26:28;93975.53;;;16.72;36.44
10518;BME280;5307;42.548;22.968;2023-02-19T11:28:59;93971.03;;;16.34;36.70
10518;BME280;5307;42.548;22.968;2023-02-19T11:31:28;93980.13;;;16.20;37.13
10518;BME280;5307;42.548;22.968;2023-02-19T11:33:57;93963.72;;;16.31;37.76
10518;BME280;5307;42.548;22.968;2023-02-19T11:36:31;93959.03;;;16.17;37.27
10518;BME280;5307;42.548;22.968;2023-02-19T11:39:01;93959.28;;;15.98;37.52
10518;BME280;5307;42.548;22.968;2023-02-19T11:44:37;93960.09;;;16.19;36.81
10518;BME280;5307;42.548;22.968;2023-02-19T11:47:43;93946.22;;;16.14;37.13
10518;BME280;5307;42.548;22.968;2023-02-19T11:50:19;93954.56;;;16.19;38.09
10518;BME280;5307;42.548;22.968;2023-02-19T11:52:56;93943.94;;;16.32;37.13
10518;BME280;5307;42.548;22.968;2023-02-19T11:55:36;93944.03;;;16.38;38.17
10518;BME280;5307;42.548;22.968;2023-02-19T11:58:25;93945.34;;;16.22;36.86
10518;BME280;5307;42.548;22.968;2023-02-19T12:01:05;93932.91;;;16.32;36.71
10518;BME280;5307;42.548;22.968;2023-02-19T12:03:56;93930.56;;;16.46;37.52
10518;BME280;5307;42.548;22.968;2023-02-19T12:06:36;93931.19;;;16.55;37.55
10518;BME280;5307;42.548;22.968;2023-02-19T12:09:24;93917.75;;;16.43;37.45
10518;BME280;5307;42.548;22.968;2023-02-19T12:12:09;93910.91;;;15.77;38.01
10518;BME280;5307;42.548;22.968;2023-02-19T12:14:58;93906.53;;;16.26;37.92
10518;BME280;5307;42.548;22.968;2023-02-19T12:17:48;93900.75;;;16.03;37.50
10518;BME280;5307;42.548;22.968;2023-02-19T12:20:25;93893.66;;;16.17;37.23
10518;BME280;5307;42.548;22.968;2023-02-19T12:23:08;93890.91;;;16.38;37.45
10518;BME280;5307;42.548;22.968;2023-02-19T12:25:47;93883.13;;;16.16;37.61
10518;BME280;5307;42.548;22.968;2023-02-19T12:34:49;93864.78;;;16.13;38.10
10518;BME280;5307;42.548;22.968;2023-02-19T12:37:34;93850.47;;;15.88;37.66
10518;BME280;5307;42.548;22.968;2023-02-19T12:40:23;93845.78;;;16.15;37.90
10518;BME280;5307;42.548;22.968;2023-02-19T12:43:04;93850.00;;;16.10;37.28
10518;BME280;5307;42.548;22.968;2023-02-19T12:45:38;93836.88;;;16.25;37.97
10518;BME280;5307;42.548;22.968;2023-02-19T12:48:12;93839.88;;;16.22;37.45
10518;BME280;5307;42.548;22.968;2023-02-19T12:50:43;93834.63;;;16.24;37.86
10518;BME280;5307;42.548;22.968;2023-02-19T12:53:28;93817.69;;;16.11;38.07
10518;BME280;5307;42.548;22.968;2023-02-19T12:55:56;93816.31;;;16.21;37.63
10518;BME280;5307;42.548;22.968;2023-02-19T12:58:27;93825.91;;;16.31;38.81
10518;BME280;5307;42.548;22.968;2023-02-19T13:00:56;93821.91;;;16.32;36.91
10518;BME280;5307;42.548;22.968;2023-02-19T13:03:29;93814.19;;;16.10;37.46
10518;BME280;5307;42.548;22.968;2023-02-19T13:06:04;93825.91;;;16.31;37.57
10518;BME280;5307;42.548;22.968;2023-02-19T13:08:37;93817.41;;;16.09;36.49
10518;BME280;5307;42.548;22.968;2023-02-19T13:11:09;93799.94;;;16.38;36.83
10518;BME280;5307;42.548;22.968;2023-02-19T13:13:42;93796.94;;;16.15;36.96
10518;BME280;5307;42.548;22.968;2023-02-19T13:16:13;93795.91;;;16.33;38.70
10518;BME280;5307;42.548;22.968;2023-02-19T13:18:44;93790.09;;;16.31;36.53
10518;BME280;5307;42.548;22.968;2023-02-19T13:21:16;93782.69;;;16.17;35.66
10518;BME280;5307;42.548;22.968;2023-02-19T13:24:07;93779.66;;;16.15;36.59
10518;BME280;5307;42.548;22.968;2023-02-19T13:26:47;93779.13;;;16.11;37.81
10518;BME280;5307;42.548;22.968;2023-02-19T13:29:30;93772.22;;;16.21;38.40
10518;BME280;5307;42.548;22.968;2023-02-19T13:32:18;93768.94;;;15.96;37.90
10518;BME280;5307;42.548;22.968;2023-02-19T13:34:57;93770.47;;;15.97;37.81
10518;BME280;5307;42.548;22.968;2023-02-19T13:37:32;93759.38;;;16.18;37.20
10518;BME280;5307;42.548;22.968;2023-02-19T13:40:03;93763.69;;;16.19;37.33
10518;BME280;5307;42.548;22.968;2023-02-19T13:42:32;93755.13;;;16.17;38.26
10518;BME280;5307;42.548;22.968;2023-02-19T13:45:00;93756.63;;;16.18;36.33